ADDS METAR Data INFO
IDs: Format: Raw Decoded Include TAF

Data at: 0201 UTC 26 Apr 2017

METAR for:LFAQ (Albert/Picardie Arpt, --, FR)
Text:LFAQ 260130Z AUTO 32005KT CAVOK 00/M02 Q1013
Temperature: 0.0°C ( 32°F)
Dewpoint: -2.0°C ( 28°F) [RH = 86%]
Pressure (altimeter):29.91 inches Hg (1013.0 mb)
Winds:from the NW (320 degrees) at 6 MPH (5 knots; 2.6 m/s)
Visibility:6 or more sm (10+ km)
Ceiling:ceiling and visibility are OK
Clouds:unknown

TAF for:LFAQ (Albert/Picardie Arpt, --, FR)
Text:No data found


Page loaded:  02:01 UTC  |   07:01 PM Pacific  |   08:01 PM Mountain  |   09:01 PM Central  |   10:01 PM Eastern

 

ADVISORIES

FORECASTS

FORECASTS

OBSERVATIONS

USER TOOLS

ABOUT US